Aérodrome :
LOGIN :

S'inscrire | Disclaimer

   EN    FR    IT 

 










Légende :    VFR   VFR Marginal   IFR   IFR Intensif   IFR Très Intensif
Visi : 
Plafond : 
>= 8 km
>= 3000ft
5 à 8 km
1000 à 3000 ft
1500m à 5 km
500 à 1000 ft
800 à 1500m
200 à 500 ft
< 800m
< 200 ft
Symboles :   Orages  Brouillard  Fortes neiges  Fortes précipitations  Vent > 20 kt
SIGMETs :   Divers  Orages  Givrage  Turbulence  Onde Orograph.  Cendres Volcan.






- Altitude de l'aérodrome : 15 ft
- Code IATA : BHD


EGAC - George Best Belfast City

DERNIER METAR :
  • 230150Z AUTO 34005KT 310V030 9999 OVC049 15/12 Q1015

METARs EXPIRÉS :
  • 230120Z AUTO 01004KT 9999 BKN043 15/12 Q1015
  • 230050Z AUTO 03004KT 9999 OVC037 15/13 Q1014
  • 230020Z AUTO 02004KT 9999 OVC034 15/13 Q1014
  • 222350Z AUTO 03004KT 9999 BKN031 OVC038 15/13 Q1014
  • 222320Z AUTO 04003KT 9999 SCT018 OVC042 15/13 Q1014
  • 222250Z AUTO 05003KT 9999 -SHRA BKN017 15/13 Q1014
  • 222220Z AUTO 05004KT 9999 -DZRA BKN018 OVC043 15/13 Q1013
  • 222150Z AUTO 06003KT 9999 OVC017 15/13 Q1013
  • 222120Z AUTO 07003KT 050V110 9999 //////TCU 14/13 Q1013

Prévision TAF périmée.
ATIS : +44 02890 935 124



MET'MAP, la Météo Aéronautique d'un coup d'oeil ! - Copyright ORBIFLY Décembre 2007 - Disclaimer

ORBIFLY MET'MAP TEAM :

Programmation & Développement : Alexandra Zaïnal
Sur une idée originale de : Baudouin d'Aumeries
Soutien technique & logistique : Manuel Goepfert
Assistance : Marc-Olivier Méhu




SOURCES & CREDITS :

   NOAA